Time;durP1;ratioP1;P1;durP2;ratioP2;P2;SDS_P1;SDS_P2;PMS_P1;PMS_P2;Temp;Humidity;BMP_temperature;BMP_pressure;BME280_temperature;BME280_humidity;BME280_pressure;Samples;Min_cycle;Max_cycle;Signal;HPM_P1;HPM_P2
2024/02/17 00:00:39;;;;;;;26.13;14.15;;;11.60;99.90;;;;;;5017872;28;20022;-89
2024/02/17 00:03:05;;;;;;;31.90;15.15;;;11.60;99.90;;;;;;4999129;28;20117;-91
2024/02/17 00:05:31;;;;;;;28.90;15.23;;;11.60;99.90;;;;;;4999403;28;20057;-90
2024/02/17 00:07:57;;;;;;;26.50;13.13;;;11.60;99.90;;;;;;5018208;28;20034;-90
2024/02/17 00:10:23;;;;;;;27.92;14.38;;;11.60;99.90;;;;;;5001748;28;20129;-91
2024/02/17 00:12:48;;;;;;;27.50;14.48;;;11.60;99.90;;;;;;5026164;28;20053;-91
2024/02/17 00:15:14;;;;;;;27.55;14.07;;;11.60;99.90;;;;;;5004121;28;20025;-90
2024/02/17 00:17:40;;;;;;;32.80;15.57;;;11.60;99.90;;;;;;5005681;28;20018;-91
2024/02/17 00:20:07;;;;;;;29.55;15.50;;;11.50;99.90;;;;;;4999054;28;20108;-91
2024/02/17 00:22:32;;;;;;;33.50;16.20;;;11.50;99.90;;;;;;5002970;28;20026;-91
2024/02/17 00:24:58;;;;;;;29.55;15.95;;;11.50;99.90;;;;;;4990983;28;20141;-92
2024/02/17 00:27:24;;;;;;;33.88;16.33;;;11.50;99.90;;;;;;5021943;28;20038;-91
2024/02/17 00:29:52;;;;;;;36.20;18.15;;;11.60;99.90;;;;;;5025779;28;20038;-91
2024/02/17 00:32:18;;;;;;;37.25;16.95;;;11.50;99.90;;;;;;5022619;28;20036;-90
2024/02/17 00:34:43;;;;;;;32.58;16.40;;;11.50;99.90;;;;;;4989709;28;20035;-90
2024/02/17 00:37:09;;;;;;;31.95;16.95;;;11.50;99.90;;;;;;5019492;28;20022;-91
2024/02/17 00:39:36;;;;;;;37.00;17.88;;;11.50;99.90;;;;;;5006291;28;20093;-91
2024/02/17 00:42:03;;;;;;;33.75;17.15;;;11.50;99.90;;;;;;5008203;28;20022;-91
2024/02/17 00:44:30;;;;;;;36.60;17.27;;;11.50;99.90;;;;;;5022434;28;20060;-90
2024/02/17 00:46:56;;;;;;;34.88;17.27;;;11.50;99.90;;;;;;5020335;28;20586;-90
2024/02/17 00:49:24;;;;;;;34.35;17.83;;;11.50;99.90;;;;;;5024063;28;20045;-89
2024/02/17 00:51:50;;;;;;;39.53;19.58;;;11.50;99.90;;;;;;5003154;28;20480;-91
2024/02/17 00:54:16;;;;;;;40.78;19.92;;;11.50;99.90;;;;;;5017389;28;20030;-91
2024/02/17 00:56:42;;;;;;;37.88;19.85;;;11.50;99.90;;;;;;5014958;28;20073;-91
2024/02/17 00:59:08;;;;;;;41.47;20.15;;;11.40;99.90;;;;;;5003170;28;20036;-92
2024/02/17 01:01:36;;;;;;;38.63;18.95;;;11.40;99.90;;;;;;5002995;28;20121;-93
2024/02/17 01:04:02;;;;;;;37.65;18.77;;;11.50;99.90;;;;;;5019817;28;20036;-90
2024/02/17 01:06:28;;;;;;;39.10;18.85;;;11.50;99.90;;;;;;4996519;28;20034;-89
2024/02/17 01:08:54;;;;;;;37.97;19.70;;;11.50;99.90;;;;;;5018574;28;20033;-91
2024/02/17 01:11:21;;;;;;;45.67;21.27;;;11.40;99.90;;;;;;5004548;28;20369;-90
2024/02/17 01:13:48;;;;;;;44.90;20.67;;;11.40;99.90;;;;;;5018151;28;20029;-92
2024/02/17 01:16:14;;;;;;;43.33;19.02;;;11.40;99.90;;;;;;5002555;28;20034;-89
2024/02/17 01:18:43;;;;;;;46.08;20.83;;;11.40;99.90;;;;;;5030513;28;20033;-90
2024/02/17 01:21:09;;;;;;;40.63;19.10;;;11.40;99.90;;;;;;5011653;28;20148;-91
2024/02/17 01:23:35;;;;;;;43.65;19.70;;;11.50;99.90;;;;;;5012440;28;20680;-91
2024/02/17 01:26:01;;;;;;;36.45;17.30;;;11.50;99.90;;;;;;5025595;28;20037;-92
2024/02/17 01:28:41;;;;;;;34.10;18.75;;;11.50;99.90;;;;;;5006029;28;20516;-91
2024/02/17 01:31:09;;;;;;;29.45;15.55;;;11.40;99.90;;;;;;5007185;28;20030;-94
2024/02/17 01:33:35;;;;;;;28.40;14.95;;;11.40;99.90;;;;;;4998878;28;20038;-93
2024/02/17 01:36:02;;;;;;;29.33;14.10;;;11.40;99.90;;;;;;5001510;28;20034;-90
2024/02/17 01:38:27;;;;;;;29.00;14.77;;;11.40;99.90;;;;;;5008446;28;20060;-92
2024/02/17 01:40:58;;;;;;;29.17;13.57;;;11.40;99.90;;;;;;5010622;28;20033;-92
2024/02/17 01:43:23;;;;;;;25.58;11.93;;;11.50;99.90;;;;;;5005259;28;20061;-96
2024/02/17 01:45:50;;;;;;;23.63;13.27;;;11.50;99.90;;;;;;5029403;28;20049;-93
2024/02/17 01:48:16;;;;;;;21.27;11.57;;;11.50;99.90;;;;;;5015701;28;20112;-90
2024/02/17 01:50:42;;;;;;;22.60;12.90;;;11.50;99.90;;;;;;5002300;28;20022;-91
2024/02/17 01:53:10;;;;;;;24.15;12.38;;;11.50;99.90;;;;;;5003001;28;20037;-92
2024/02/17 01:55:39;;;;;;;25.98;12.10;;;11.40;99.90;;;;;;5018594;28;20029;-94
2024/02/17 01:58:06;;;;;;;22.65;11.15;;;11.40;99.90;;;;;;4989030;28;20061;-92
2024/02/17 02:00:33;;;;;;;22.48;10.52;;;11.50;99.90;;;;;;5006423;28;20091;-91
2024/02/17 02:02:58;;;;;;;18.90;10.95;;;11.60;99.90;;;;;;5020961;28;20025;-93
2024/02/17 02:05:26;;;;;;;20.38;10.63;;;11.50;99.90;;;;;;5010382;28;20033;-94
2024/02/17 02:07:52;;;;;;;19.48;10.60;;;11.60;99.90;;;;;;5020720;28;20065;-91
2024/02/17 02:10:19;;;;;;;18.15;9.50;;;11.60;99.90;;;;;;4999141;28;20031;-91
2024/02/17 02:12:45;;;;;;;16.08;10.57;;;11.60;99.90;;;;;;4999733;28;20041;-89
2024/02/17 02:15:13;;;;;;;18.75;10.13;;;11.60;99.90;;;;;;5002676;28;20060;-93
2024/02/17 02:17:40;;;;;;;16.45;9.63;;;11.50;99.90;;;;;;5001183;28;20057;-89
2024/02/17 02:20:09;;;;;;;13.55;8.52;;;11.50;99.90;;;;;;5027591;28;20080;-91
2024/02/17 02:22:38;;;;;;;16.88;9.18;;;11.50;99.90;;;;;;5004274;28;20018;-90
2024/02/17 02:25:07;;;;;;;17.35;9.90;;;11.60;99.90;;;;;;4999111;28;20045;-91
2024/02/17 02:27:41;;;;;;;18.17;9.48;;;11.60;99.90;;;;;;5001447;28;20519;-92
2024/02/17 02:30:08;;;;;;;20.75;10.98;;;11.50;99.90;;;;;;5016385;28;20037;-90
2024/02/17 02:32:33;;;;;;;18.00;9.52;;;11.50;99.90;;;;;;5021331;28;20037;-91
2024/02/17 02:35:01;;;;;;;18.08;9.68;;;11.40;99.90;;;;;;5020183;28;20038;-93
2024/02/17 02:37:31;;;;;;;18.77;9.68;;;11.50;99.90;;;;;;5001599;28;20033;-92
2024/02/17 02:40:00;;;;;;;20.13;10.50;;;11.50;99.90;;;;;;4999954;28;20507;-92
2024/02/17 02:42:31;;;;;;;17.25;9.68;;;11.50;99.90;;;;;;5002799;28;20087;-93
2024/02/17 02:44:58;;;;;;;19.70;9.63;;;11.40;99.90;;;;;;5002024;28;20117;-90
2024/02/17 02:47:26;;;;;;;18.85;11.02;;;11.40;99.90;;;;;;4993624;28;20025;-94
2024/02/17 02:50:00;;;;;;;20.75;10.32;;;11.40;99.90;;;;;;4994817;28;20093;-90
2024/02/17 02:52:27;;;;;;;18.13;10.15;;;11.50;99.90;;;;;;4986665;28;20113;-90
2024/02/17 02:54:54;;;;;;;18.60;9.68;;;11.40;99.90;;;;;;4995252;28;20069;-91
2024/02/17 02:57:21;;;;;;;20.20;10.77;;;11.50;99.90;;;;;;5019175;28;20106;-90
2024/02/17 02:59:49;;;;;;;19.48;10.43;;;11.50;99.90;;;;;;5009726;28;20080;-91
2024/02/17 03:02:16;;;;;;;20.50;11.77;;;11.40;99.90;;;;;;5019758;28;20105;-92
2024/02/17 03:04:43;;;;;;;20.17;10.98;;;11.40;99.90;;;;;;5000438;28;20492;-91
2024/02/17 03:07:09;;;;;;;16.10;9.55;;;11.40;99.90;;;;;;5000792;28;20030;-90
2024/02/17 03:09:37;;;;;;;19.67;11.05;;;11.40;99.90;;;;;;4999995;28;20022;-90
2024/02/17 03:12:03;;;;;;;20.65;10.95;;;11.30;99.90;;;;;;5004289;28;20030;-93
2024/02/17 03:14:30;;;;;;;16.92;10.07;;;11.30;99.90;;;;;;5005681;28;20022;-91
2024/02/17 03:16:56;;;;;;;19.80;10.50;;;11.30;99.90;;;;;;5000910;28;20037;-91
2024/02/17 03:19:22;;;;;;;18.77;10.07;;;11.30;99.90;;;;;;5000195;28;20105;-90
2024/02/17 03:21:48;;;;;;;18.30;10.93;;;11.30;99.90;;;;;;4999866;28;20030;-91
2024/02/17 03:24:14;;;;;;;19.45;11.40;;;11.20;99.90;;;;;;4999327;28;20109;-91
2024/02/17 03:26:41;;;;;;;16.92;9.07;;;11.20;99.90;;;;;;5000134;28;20045;-90
2024/02/17 03:29:07;;;;;;;19.85;10.55;;;11.20;99.90;;;;;;5016914;28;20033;-88
2024/02/17 03:31:33;;;;;;;19.40;11.35;;;11.30;99.90;;;;;;5016093;28;20053;-89
2024/02/17 03:34:00;;;;;;;18.33;10.43;;;11.30;99.90;;;;;;5000028;28;20025;-90
2024/02/17 03:36:26;;;;;;;20.45;11.10;;;11.20;99.90;;;;;;5004664;28;20065;-89
2024/02/17 03:38:52;;;;;;;19.08;10.50;;;11.20;99.90;;;;;;5001034;28;20018;-91
2024/02/17 03:41:18;;;;;;;21.55;10.15;;;11.10;99.90;;;;;;5001200;28;20022;-91
2024/02/17 03:43:49;;;;;;;17.33;10.38;;;11.10;99.90;;;;;;5004577;28;20059;-89
2024/02/17 03:46:15;;;;;;;18.05;10.70;;;11.10;99.90;;;;;;4994405;28;20030;-89
2024/02/17 03:48:44;;;;;;;17.05;10.10;;;11.10;99.90;;;;;;4991769;28;20127;-91
2024/02/17 03:51:10;;;;;;;17.73;10.00;;;11.10;99.90;;;;;;5009904;28;20029;-91
2024/02/17 03:53:36;;;;;;;18.38;11.02;;;11.20;99.90;;;;;;5006525;28;20037;-90
2024/02/17 03:56:03;;;;;;;19.98;10.45;;;11.20;99.90;;;;;;4999370;28;20037;-91
2024/02/17 03:58:31;;;;;;;20.20;10.65;;;11.10;99.90;;;;;;5026187;28;20480;-90
2024/02/17 04:00:57;;;;;;;20.98;10.30;;;11.10;99.90;;;;;;5011691;28;20030;-91
2024/02/17 04:03:23;;;;;;;24.02;11.75;;;11.10;99.90;;;;;;5013472;28;20035;-89
2024/02/17 04:05:49;;;;;;;20.63;9.40;;;11.00;99.90;;;;;;5007582;28;20116;-90
2024/02/17 04:08:15;;;;;;;23.45;11.63;;;11.00;99.90;;;;;;5026202;28;20029;-90
2024/02/17 04:10:42;;;;;;;24.50;12.20;;;11.00;99.90;;;;;;5004971;28;20042;-92
2024/02/17 04:13:08;;;;;;;19.45;10.18;;;10.90;99.90;;;;;;5023445;28;20022;-90
2024/02/17 04:15:34;;;;;;;25.13;11.45;;;11.00;99.90;;;;;;5011872;28;20029;-90
2024/02/17 04:18:01;;;;;;;24.52;11.35;;;11.00;99.90;;;;;;5004739;28;20042;-90
2024/02/17 04:20:27;;;;;;;23.90;10.82;;;11.00;99.90;;;;;;5029612;28;20022;-91
2024/02/17 04:22:53;;;;;;;20.75;11.60;;;11.00;99.90;;;;;;5030072;28;20014;-95
2024/02/17 04:25:19;;;;;;;25.77;12.10;;;10.90;99.90;;;;;;5034948;28;20038;-93
2024/02/17 04:27:45;;;;;;;22.92;10.15;;;10.90;99.90;;;;;;5009980;28;20054;-93
2024/02/17 04:30:11;;;;;;;26.15;12.05;;;11.00;99.90;;;;;;5016357;28;20174;-92
2024/02/17 04:32:38;;;;;;;21.98;11.65;;;10.90;99.90;;;;;;5002742;28;20021;-91
2024/02/17 04:35:05;;;;;;;21.50;10.15;;;10.90;99.90;;;;;;5008097;28;20032;-90
2024/02/17 04:37:31;;;;;;;19.85;10.07;;;11.00;99.90;;;;;;4989961;28;20527;-93
2024/02/17 04:39:57;;;;;;;19.70;9.57;;;11.00;99.90;;;;;;5005239;28;20025;-90
2024/02/17 04:42:27;;;;;;;21.10;10.88;;;10.90;99.90;;;;;;5018598;28;20202;-89
2024/02/17 04:44:56;;;;;;;20.40;10.48;;;10.90;99.90;;;;;;5016691;28;20470;-90
2024/02/17 04:47:22;;;;;;;24.15;11.60;;;10.90;99.90;;;;;;5011130;28;20030;-91
2024/02/17 04:49:52;;;;;;;20.88;9.60;;;10.90;99.90;;;;;;5010487;28;20053;-91
2024/02/17 04:52:19;;;;;;;19.38;9.85;;;10.90;99.90;;;;;;5007141;28;20022;-91
2024/02/17 04:54:45;;;;;;;21.35;10.65;;;10.80;99.90;;;;;;5003445;28;20056;-90
2024/02/17 04:57:11;;;;;;;20.92;8.77;;;10.70;99.90;;;;;;5010161;28;20029;-90
2024/02/17 04:59:37;;;;;;;18.27;9.63;;;10.70;99.90;;;;;;4985276;28;20117;-91
2024/02/17 05:02:04;;;;;;;16.65;8.52;;;10.70;99.90;;;;;;5002802;28;20034;-91
2024/02/17 05:04:30;;;;;;;18.02;9.30;;;10.60;99.90;;;;;;5002614;28;20499;-91
2024/02/17 05:06:56;;;;;;;22.13;10.68;;;10.70;99.90;;;;;;4998470;28;20044;-90
2024/02/17 05:09:22;;;;;;;15.77;8.23;;;10.60;99.90;;;;;;4999059;28;20021;-90
2024/02/17 05:11:48;;;;;;;16.27;8.73;;;10.60;99.90;;;;;;5005679;28;20029;-90
2024/02/17 05:14:17;;;;;;;16.67;8.80;;;10.60;99.90;;;;;;5003901;28;20073;-89
2024/02/17 05:16:46;;;;;;;18.27;8.73;;;10.50;99.90;;;;;;5003230;28;20034;-91
2024/02/17 05:19:16;;;;;;;19.48;10.80;;;10.50;99.90;;;;;;5001471;28;20019;-90
2024/02/17 05:21:46;;;;;;;17.77;10.10;;;10.50;99.90;;;;;;5005380;28;20477;-89
2024/02/17 05:24:14;;;;;;;17.30;10.02;;;10.50;99.90;;;;;;5032989;28;20397;-94
2024/02/17 05:26:41;;;;;;;17.90;8.32;;;10.50;99.90;;;;;;5017083;28;20033;-91
2024/02/17 05:29:07;;;;;;;17.13;8.38;;;10.50;99.90;;;;;;5006373;28;20042;-92
2024/02/17 05:31:35;;;;;;;17.20;8.02;;;10.40;99.90;;;;;;5019879;28;20065;-91
2024/02/17 05:34:05;;;;;;;14.07;7.65;;;10.30;99.90;;;;;;5003972;28;20018;-91
2024/02/17 05:36:34;;;;;;;16.75;9.90;;;10.30;99.90;;;;;;5021872;28;20042;-91
2024/02/17 05:39:02;;;;;;;14.00;7.70;;;10.30;99.90;;;;;;4992981;28;20046;-91
2024/02/17 05:41:28;;;;;;;14.75;7.18;;;10.20;99.90;;;;;;5022030;28;20076;-91
2024/02/17 05:43:57;;;;;;;15.20;7.78;;;10.20;99.90;;;;;;5026157;28;20030;-91
2024/02/17 05:46:24;;;;;;;13.73;6.10;;;10.10;99.90;;;;;;4988427;28;20041;-92
2024/02/17 05:48:55;;;;;;;15.43;8.13;;;10.00;99.90;;;;;;5022986;28;20116;-91
2024/02/17 05:51:23;;;;;;;14.68;7.57;;;9.80;99.90;;;;;;5022701;28;20461;-90
2024/02/17 05:53:49;;;;;;;13.93;7.00;;;9.70;99.90;;;;;;5003748;28;20030;-90
2024/02/17 05:56:17;;;;;;;13.50;7.18;;;9.70;99.90;;;;;;5003928;28;20056;-93
2024/02/17 05:58:45;;;;;;;13.18;6.90;;;9.70;99.90;;;;;;5029917;28;20485;-90
2024/02/17 06:01:12;;;;;;;14.13;7.95;;;9.60;99.90;;;;;;5009144;28;20030;-91
2024/02/17 06:03:38;;;;;;;11.57;6.95;;;9.60;99.90;;;;;;5003804;28;20061;-90
2024/02/17 06:06:05;;;;;;;12.50;6.47;;;9.50;99.90;;;;;;5006549;28;21084;-91
2024/02/17 06:08:31;;;;;;;12.32;6.97;;;9.50;99.90;;;;;;5011821;28;20022;-91
2024/02/17 06:10:59;;;;;;;12.48;6.95;;;9.50;99.90;;;;;;5020697;28;20037;-90
2024/02/17 06:13:29;;;;;;;12.60;6.95;;;9.50;99.90;;;;;;5012790;28;20535;-95
2024/02/17 06:15:55;;;;;;;13.98;7.88;;;9.40;99.90;;;;;;5010167;28;20037;-93
2024/02/17 06:21:10;;;;;;;11.43;7.45;;;9.40;99.90;;;;;;5007934;28;20032;-93
2024/02/17 06:23:37;;;;;;;11.23;7.03;;;9.40;99.90;;;;;;5004724;28;20299;-92
2024/02/17 06:26:05;;;;;;;13.88;7.70;;;9.30;99.90;;;;;;5006348;28;20432;-94
2024/02/17 06:28:31;;;;;;;;;;;9.30;99.90;;;;;;5031377;28;20060;-91
2024/02/17 06:30:57;;;;;;;11.90;7.22;;;9.30;99.90;;;;;;5007531;28;19909;-93
2024/02/17 06:33:23;;;;;;;11.90;6.38;;;9.30;99.90;;;;;;5019649;28;20033;-94
2024/02/17 06:35:51;;;;;;;10.63;5.63;;;9.30;99.90;;;;;;5017322;28;20033;-92
2024/02/17 06:38:18;;;;;;;13.20;7.72;;;9.30;99.90;;;;;;5012748;28;20030;-94
2024/02/17 06:40:44;;;;;;;9.50;5.70;;;9.20;99.90;;;;;;5008916;28;20044;-92
2024/02/17 06:43:10;;;;;;;12.90;7.70;;;9.20;99.90;;;;;;5005673;28;20093;-93
2024/02/17 06:45:38;;;;;;;13.63;8.02;;;9.20;99.90;;;;;;5027470;28;20042;-90
2024/02/17 06:48:05;;;;;;;12.55;7.22;;;9.20;99.90;;;;;;5001941;28;20033;-91
2024/02/17 06:50:32;;;;;;;11.18;7.38;;;9.20;99.90;;;;;;5017137;28;20042;-92
2024/02/17 06:52:59;;;;;;;10.27;5.30;;;9.20;99.90;;;;;;4984158;28;20022;-90
2024/02/17 06:55:25;;;;;;;13.63;8.48;;;9.10;99.90;;;;;;5012967;28;20029;-92
2024/02/17 06:57:51;;;;;;;17.23;9.95;;;9.10;99.90;;;;;;5001158;28;20476;-93
2024/02/17 07:00:21;;;;;;;11.30;6.75;;;9.10;99.90;;;;;;5003275;28;20076;-92
2024/02/17 07:02:47;;;;;;;13.00;8.10;;;9.00;99.90;;;;;;5005774;28;20511;-91
2024/02/17 07:05:17;;;;;;;16.35;9.13;;;9.00;99.90;;;;;;5001761;28;20704;-90
2024/02/17 07:07:44;;;;;;;13.95;7.30;;;9.10;99.90;;;;;;5020659;28;20033;-93
2024/02/17 07:10:10;;;;;;;13.38;6.05;;;9.10;99.90;;;;;;5020745;28;20025;-92
2024/02/17 07:12:37;;;;;;;11.77;7.13;;;9.00;99.90;;;;;;5007149;28;20120;-93
2024/02/17 07:15:06;;;;;;;13.52;8.60;;;8.90;99.90;;;;;;5026825;28;20599;-93
2024/02/17 07:17:32;;;;;;;11.02;5.55;;;8.90;99.90;;;;;;5019442;28;20022;-92
2024/02/17 07:19:58;;;;;;;6.75;4.35;;;8.90;99.90;;;;;;5022941;28;20105;-93
2024/02/17 07:22:24;;;;;;;6.70;3.95;;;8.90;99.90;;;;;;5019001;28;20048;-90
2024/02/17 07:24:51;;;;;;;8.85;4.80;;;8.70;99.90;;;;;;5045333;28;20021;-92
2024/02/17 07:27:17;;;;;;;5.80;4.15;;;8.60;99.90;;;;;;5033029;28;20026;-93
2024/02/17 07:29:43;;;;;;;9.60;4.50;;;8.60;99.90;;;;;;5021227;28;20085;-90
2024/02/17 07:32:09;;;;;;;12.10;5.07;;;8.50;99.90;;;;;;5004898;28;20396;-93
2024/02/17 07:34:38;;;;;;;9.00;4.35;;;8.60;99.90;;;;;;5022494;28;20017;-92
2024/02/17 07:37:04;;;;;;;27.27;5.93;;;8.60;99.90;;;;;;4997235;28;20087;-92
2024/02/17 07:39:30;;;;;;;16.88;4.78;;;8.60;99.90;;;;;;5006190;28;20038;-92
2024/02/17 07:41:56;;;;;;;8.90;5.13;;;8.60;99.90;;;;;;4985913;28;20140;-91
2024/02/17 07:44:23;;;;;;;13.57;4.80;;;8.50;99.90;;;;;;5001355;28;20496;-91
2024/02/17 07:46:50;;;;;;;8.45;4.68;;;8.60;99.90;;;;;;5019381;28;20022;-91
2024/02/17 07:49:17;;;;;;;13.18;4.10;;;8.70;99.90;;;;;;5019915;28;20044;-94
2024/02/17 07:51:44;;;;;;;8.57;5.28;;;8.70;99.90;;;;;;5022318;28;20033;-90
2024/02/17 07:54:10;;;;;;;11.30;6.53;;;8.70;99.90;;;;;;5027396;28;20029;-92
2024/02/17 07:56:36;;;;;;;10.48;5.18;;;8.80;99.90;;;;;;5001085;28;20022;-91
2024/02/17 07:59:02;;;;;;;10.13;6.05;;;8.90;99.90;;;;;;5020087;28;20357;-92
2024/02/17 08:01:29;;;;;;;10.68;6.75;;;8.90;99.90;;;;;;5020861;28;20392;-92
2024/02/17 08:03:55;;;;;;;10.10;7.22;;;8.90;99.90;;;;;;5000222;28;20061;-91
2024/02/17 08:06:21;;;;;;;12.73;7.45;;;9.00;99.90;;;;;;5000973;28;20053;-93
2024/02/17 08:08:49;;;;;;;10.70;6.70;;;9.00;99.90;;;;;;5028875;28;20088;-91
2024/02/17 08:11:16;;;;;;;10.77;5.93;;;9.10;99.90;;;;;;5021361;28;20057;-92
2024/02/17 08:13:42;;;;;;;11.57;6.50;;;9.20;99.90;;;;;;5019714;28;20061;-92
2024/02/17 08:16:09;;;;;;;10.45;6.53;;;9.30;99.90;;;;;;5029265;28;20064;-92
2024/02/17 08:18:35;;;;;;;11.20;6.70;;;9.30;99.90;;;;;;5020226;28;20086;-91
2024/02/17 08:21:02;;;;;;;12.57;6.72;;;9.40;99.90;;;;;;5006195;28;20022;-93
2024/02/17 08:23:30;;;;;;;12.93;7.20;;;9.50;99.90;;;;;;5004660;28;20033;-92
2024/02/17 08:25:56;;;;;;;14.25;7.90;;;9.60;99.90;;;;;;5024435;28;20035;-91
2024/02/17 08:28:22;;;;;;;14.88;8.38;;;9.70;99.90;;;;;;5014540;28;20117;-91
2024/02/17 08:30:49;;;;;;;14.85;7.25;;;9.70;99.90;;;;;;5005552;28;20028;-91
2024/02/17 08:33:15;;;;;;;;;;;9.80;99.90;;;;;;5015703;28;20057;-92
2024/02/17 08:35:41;;;;;;;15.45;9.45;;;9.80;99.90;;;;;;5020829;28;20101;-93
2024/02/17 08:38:07;;;;;;;17.13;8.82;;;9.90;99.90;;;;;;5021768;28;20029;-92
2024/02/17 08:40:37;;;;;;;28.33;16.50;;;9.90;99.90;;;;;;5023531;28;20020;-92
2024/02/17 08:43:04;;;;;;;14.85;7.63;;;9.90;99.90;;;;;;5019379;28;20018;-92
2024/02/17 08:45:31;;;;;;;17.85;8.52;;;9.90;99.90;;;;;;5021926;28;20030;-92
2024/02/17 08:47:56;;;;;;;15.05;7.80;;;10.10;99.90;;;;;;5027733;28;20033;-91
2024/02/17 08:50:22;;;;;;;20.08;13.32;;;10.20;99.90;;;;;;5027059;28;20018;-91
2024/02/17 08:52:48;;;;;;;12.95;7.28;;;10.30;99.90;;;;;;5028537;28;20496;-92
2024/02/17 08:55:14;;;;;;;12.88;7.68;;;10.40;99.90;;;;;;5027792;28;20105;-92
2024/02/17 08:57:40;;;;;;;15.75;7.20;;;10.40;99.90;;;;;;5022518;28;20053;-92
2024/02/17 09:00:08;;;;;;;15.18;7.28;;;10.50;99.90;;;;;;5007577;28;20029;-92
2024/02/17 09:02:34;;;;;;;12.85;7.78;;;10.60;99.90;;;;;;5025177;28;20022;-93
2024/02/17 09:05:06;;;;;;;14.60;7.22;;;10.50;99.90;;;;;;5007452;28;20022;-92
2024/02/17 09:07:32;;;;;;;12.52;6.97;;;10.70;99.90;;;;;;5023999;28;20021;-92
2024/02/17 09:09:59;;;;;;;13.02;7.10;;;10.80;99.90;;;;;;5006190;28;20484;-93
2024/02/17 09:12:25;;;;;;;13.93;7.05;;;10.90;99.90;;;;;;5030489;28;20028;-93
2024/02/17 09:14:51;;;;;;;13.77;7.20;;;11.10;99.90;;;;;;5028883;28;20053;-93
2024/02/17 09:17:17;;;;;;;12.88;6.95;;;11.20;99.90;;;;;;5020984;28;20064;-93
2024/02/17 09:19:43;;;;;;;13.93;7.22;;;11.20;99.90;;;;;;5017883;28;20037;-92
2024/02/17 09:22:14;;;;;;;11.60;6.85;;;11.30;99.90;;;;;;5050868;28;20587;-94
2024/02/17 09:24:40;;;;;;;14.07;7.30;;;11.20;99.90;;;;;;5047715;28;20026;-93
2024/02/17 09:27:14;;;;;;;14.88;7.68;;;11.10;99.90;;;;;;5047276;28;20089;-93
2024/02/17 09:29:43;;;;;;;11.10;6.60;;;11.10;99.90;;;;;;5029425;28;20034;-93
2024/02/17 09:32:09;;;;;;;12.52;6.88;;;11.10;99.90;;;;;;5029348;28;20112;-94
2024/02/17 09:34:36;;;;;;;12.63;6.90;;;11.20;99.90;;;;;;5047629;28;20032;-93
2024/02/17 09:37:02;;;;;;;12.82;6.88;;;11.10;99.90;;;;;;5028773;28;20502;-93
2024/02/17 09:39:28;;;;;;;12.60;6.55;;;11.10;99.90;;;;;;5046229;28;20428;-92
2024/02/17 09:41:58;;;;;;;15.82;7.40;;;11.00;99.90;;;;;;5047212;28;20041;-93
2024/02/17 09:44:24;;;;;;;12.90;7.60;;;11.00;99.90;;;;;;5025955;28;20056;-93
2024/02/17 09:46:52;;;;;;;14.65;8.30;;;11.10;99.90;;;;;;5023000;28;20018;-91
2024/02/17 09:49:24;;;;;;;16.48;8.13;;;11.20;99.90;;;;;;5025077;28;20469;-92
2024/02/17 09:51:51;;;;;;;13.70;7.97;;;11.20;99.90;;;;;;5005346;28;20033;-93
2024/02/17 09:54:21;;;;;;;16.13;9.10;;;11.40;99.90;;;;;;5022471;28;20497;-93
2024/02/17 09:56:50;;;;;;;20.33;7.22;;;11.40;99.90;;;;;;5021271;28;20076;-93
2024/02/17 09:59:16;;;;;;;13.35;7.13;;;11.40;99.90;;;;;;5022819;28;20026;-93
2024/02/17 10:01:42;;;;;;;16.63;9.73;;;11.40;99.90;;;;;;5011744;28;20036;-92
2024/02/17 10:04:08;;;;;;;15.07;8.57;;;11.50;99.90;;;;;;5020796;28;20030;-91
2024/02/17 10:06:34;;;;;;;31.55;16.80;;;11.50;99.90;;;;;;5027615;28;20048;-93
2024/02/17 10:09:02;;;;;;;19.88;9.38;;;11.60;99.90;;;;;;5024646;28;20484;-93
2024/02/17 10:11:29;;;;;;;17.90;8.07;;;11.80;99.90;;;;;;5007166;28;20045;-92
2024/02/17 10:14:00;;;;;;;16.52;8.07;;;11.90;99.90;;;;;;5010795;28;20077;-93
2024/02/17 10:16:28;;;;;;;12.32;7.22;;;12.10;99.90;;;;;;5017131;28;20045;-91
2024/02/17 10:18:58;;;;;;;13.07;7.10;;;12.30;99.90;;;;;;5002697;28;20029;-91
2024/02/17 10:21:24;;;;;;;12.35;7.25;;;12.30;99.90;;;;;;5020423;28;20049;-91
2024/02/17 10:23:50;;;;;;;11.05;6.72;;;12.40;99.90;;;;;;4995344;28;20025;-90
2024/02/17 10:26:16;;;;;;;15.23;7.10;;;12.40;99.90;;;;;;5020129;28;20057;-93
2024/02/17 10:28:59;;;;;;;14.05;6.93;;;12.70;99.90;;;;;;5019663;28;20049;-94
2024/02/17 10:31:27;;;;;;;11.65;7.40;;;12.90;99.90;;;;;;5004196;28;20029;-92
2024/02/17 10:33:53;;;;;;;13.55;7.10;;;13.20;99.90;;;;;;5014923;28;20052;-93
2024/02/17 10:36:22;;;;;;;12.38;8.60;;;13.20;98.20;;;;;;5041461;28;20025;-92
2024/02/17 10:38:48;;;;;;;14.38;6.85;;;13.50;99.90;;;;;;5019394;28;20026;-91
2024/02/17 10:41:14;;;;;;;14.15;7.32;;;13.60;98.00;;;;;;5004040;28;20029;-91
2024/02/17 10:43:43;;;;;;;17.70;8.32;;;13.90;97.20;;;;;;5004076;28;20530;-92
2024/02/17 10:46:24;;;;;;;14.70;8.07;;;14.20;97.90;;;;;;5020115;28;20032;-90
2024/02/17 10:49:15;;;;;;;11.70;5.88;;;14.10;94.70;;;;;;5011436;28;20029;-91
2024/02/17 10:52:01;;;;;;;12.10;6.55;;;14.20;89.80;;;;;;5003068;28;20026;-93
2024/02/17 10:54:48;;;;;;;12.13;5.75;;;14.50;84.70;;;;;;5011726;28;20032;-92
2024/02/17 10:57:16;;;;;;;;;;;14.70;87.20;;;;;;5023890;28;20018;-92
2024/02/17 10:59:46;;;;;;;9.60;5.68;;;15.00;83.80;;;;;;5018070;28;19909;-92
2024/02/17 11:02:15;;;;;;;10.50;5.38;;;15.20;83.50;;;;;;5018785;28;20018;-91
2024/02/17 11:04:43;;;;;;;12.07;5.82;;;15.40;77.80;;;;;;5026458;28;20048;-93
2024/02/17 11:07:10;;;;;;;11.95;5.75;;;15.40;81.20;;;;;;5022928;28;20036;-92
2024/02/17 11:09:36;;;;;;;;;;;15.40;80.20;;;;;;5021011;28;20026;-92
2024/02/17 11:12:31;;;;;;;11.05;6.05;;;15.10;79.50;;;;;;5035228;28;19905;-94
2024/02/17 11:15:00;;;;;;;10.27;5.72;;;14.70;81.00;;;;;;5014937;28;20032;-93
2024/02/17 11:17:40;;;;;;;13.35;6.68;;;14.60;82.80;;;;;;5020316;28;20033;-91
2024/02/17 11:20:12;;;;;;;9.40;5.32;;;14.90;81.50;;;;;;5017819;28;20049;-93
2024/02/17 11:22:41;;;;;;;6.43;4.72;;;15.20;82.20;;;;;;5017285;28;20076;-92
2024/02/17 11:25:07;;;;;;;9.23;5.28;;;15.00;81.50;;;;;;5018225;28;20030;-92
2024/02/17 11:27:34;;;;;;;8.00;4.20;;;14.60;80.50;;;;;;5007784;28;20030;-92
2024/02/17 11:30:01;;;;;;;7.80;4.13;;;14.50;82.00;;;;;;5028285;28;20548;-90
2024/02/17 11:32:30;;;;;;;9.65;3.88;;;14.80;80.50;;;;;;5007608;28;20381;-93
2024/02/17 11:34:56;;;;;;;7.50;3.30;;;15.00;77.50;;;;;;5019977;28;20551;-91
2024/02/17 11:37:23;;;;;;;5.22;2.70;;;15.60;72.90;;;;;;5021918;28;20037;-90
2024/02/17 11:39:51;;;;;;;7.07;3.38;;;15.70;67.30;;;;;;5005276;28;20534;-92
2024/02/17 11:42:17;;;;;;;7.28;3.42;;;16.10;69.10;;;;;;5021460;28;20077;-91
2024/02/17 11:44:45;;;;;;;5.65;3.72;;;16.20;69.70;;;;;;5028465;28;20096;-90
2024/02/17 11:47:12;;;;;;;7.45;3.75;;;16.40;69.20;;;;;;5021810;28;20087;-90
2024/02/17 11:49:41;;;;;;;7.05;3.35;;;16.40;67.30;;;;;;5017110;28;20459;-91
2024/02/17 11:52:07;;;;;;;6.20;3.42;;;16.80;66.10;;;;;;5020278;28;20034;-91
2024/02/17 11:54:34;;;;;;;7.50;3.35;;;16.90;61.50;;;;;;5018380;28;20025;-93
2024/02/17 11:57:02;;;;;;;7.70;3.50;;;17.00;64.50;;;;;;5027802;28;20029;-92
2024/02/17 11:59:28;;;;;;;5.22;3.20;;;16.80;63.10;;;;;;5008465;28;20072;-92
2024/02/17 12:01:59;;;;;;;5.60;2.53;;;16.80;59.30;;;;;;5017494;28;20018;-92
2024/02/17 12:04:26;;;;;;;4.28;2.63;;;16.40;59.60;;;;;;5018574;28;20018;-91
2024/02/17 12:06:51;;;;;;;4.25;2.67;;;16.30;61.80;;;;;;5020387;28;20033;-92
2024/02/17 12:09:17;;;;;;;2.97;2.33;;;16.50;59.70;;;;;;5025694;28;20488;-91
2024/02/17 12:11:43;;;;;;;3.88;1.80;;;16.60;59.80;;;;;;5023552;28;20034;-92
2024/02/17 12:14:10;;;;;;;3.97;2.40;;;17.10;55.40;;;;;;5016405;28;20144;-91
2024/02/17 12:16:37;;;;;;;4.85;2.72;;;17.00;59.10;;;;;;5019607;28;20112;-91
2024/02/17 12:19:13;;;;;;;4.57;2.22;;;17.40;57.00;;;;;;5024039;28;20029;-91
2024/02/17 12:21:41;;;;;;;4.15;2.63;;;17.10;57.00;;;;;;5023924;28;20050;-90
2024/02/17 12:24:07;;;;;;;5.30;2.70;;;17.20;57.90;;;;;;5027179;28;20026;-91
2024/02/17 12:26:34;;;;;;;5.38;3.78;;;17.40;56.90;;;;;;5021590;28;20030;-90
2024/02/17 12:29:04;;;;;;;5.75;3.05;;;18.10;54.00;;;;;;5021824;28;20052;-90
2024/02/17 12:31:31;;;;;;;5.75;2.80;;;18.40;53.40;;;;;;5003238;28;20109;-91
2024/02/17 12:33:57;;;;;;;4.43;2.15;;;18.30;51.30;;;;;;5020722;28;20055;-91
2024/02/17 12:36:23;;;;;;;6.32;2.45;;;18.60;52.80;;;;;;5021142;28;20076;-91
2024/02/17 12:39:04;;;;;;;4.72;2.10;;;18.30;51.00;;;;;;5028990;28;20350;-93
2024/02/17 12:41:30;;;;;;;4.15;1.83;;;17.80;52.10;;;;;;5019934;28;20026;-93